Poptun, Guatemala
Current Conditions -  °F | °C
As of 2:00 PM on Thursday 30 Oct 2014 (Local Time) from MGMM Reporting Station
Scattered Clouds Scattered Clouds  
Wind Chill: 88°   Ceiling: Unl
Heat Index: 94°   Visibility: 6mi
Dew Point: 72°   Wind: 5mph
Humidity: 58%   Direction: 60°ENE
Pressure: 29.85"   Gusts: NA
Location:  16.33°N, 89.42°W
Report Text: MGMM 302000Z 06004KT 9999 SCT020 31/22 Q1011 A2985
Loading
Personal Weather Stations






























Interactive Weather Map
Tropical Storm Tracking
New forecast layout! Learn more

10-Day Weather Forecast

Advertisements
Track Severe Weather on mobile